sensor_id;sensor_type;location;lat;lon;timestamp;pressure;altitude;pressure_sealevel;temperature;humidity
68822;BME280;55834;50.870;4.606;2024-01-15T00:00:18;99925.13;;;-0.34;60.74
68822;BME280;55834;50.870;4.606;2024-01-15T00:02:43;99913.97;;;0.33;59.20
68822;BME280;55834;50.870;4.606;2024-01-15T00:05:09;99914.78;;;-0.06;59.83
68822;BME280;55834;50.870;4.606;2024-01-15T00:07:35;99913.13;;;0.74;59.31
68822;BME280;55834;50.870;4.606;2024-01-15T00:10:00;99914.84;;;0.63;58.08
68822;BME280;55834;50.870;4.606;2024-01-15T00:12:26;99924.38;;;0.42;59.35
68822;BME280;55834;50.870;4.606;2024-01-15T00:14:52;99919.16;;;0.15;59.87
68822;BME280;55834;50.870;4.606;2024-01-15T00:17:17;99918.31;;;0.33;59.44
68822;BME280;55834;50.870;4.606;2024-01-15T00:19:42;99912.22;;;0.06;59.83
68822;BME280;55834;50.870;4.606;2024-01-15T00:22:08;99899.25;;;0.14;60.30
68822;BME280;55834;50.870;4.606;2024-01-15T00:24:33;99905.31;;;0.17;59.95
68822;BME280;55834;50.870;4.606;2024-01-15T00:26:58;99895.81;;;0.47;60.85
68822;BME280;55834;50.870;4.606;2024-01-15T00:29:24;99910.38;;;-0.46;61.74
68822;BME280;55834;50.870;4.606;2024-01-15T00:31:49;99909.56;;;-0.29;60.82
68822;BME280;55834;50.870;4.606;2024-01-15T00:34:15;99891.47;;;0.44;59.81
68822;BME280;55834;50.870;4.606;2024-01-15T00:36:40;99889.69;;;0.89;59.53
68822;BME280;55834;50.870;4.606;2024-01-15T00:39:05;99896.66;;;0.31;58.91
68822;BME280;55834;50.870;4.606;2024-01-15T00:41:31;99896.63;;;0.09;59.96
68822;BME280;55834;50.870;4.606;2024-01-15T00:43:56;99892.31;;;0.60;60.15
68822;BME280;55834;50.870;4.606;2024-01-15T00:46:22;99893.22;;;0.47;59.25
68822;BME280;55834;50.870;4.606;2024-01-15T00:48:47;99894.03;;;0.94;58.25
68822;BME280;55834;50.870;4.606;2024-01-15T00:51:13;99896.63;;;0.94;58.57
68822;BME280;55834;50.870;4.606;2024-01-15T00:53:38;99896.59;;;1.13;57.89
68822;BME280;55834;50.870;4.606;2024-01-15T00:56:04;99903.56;;;0.91;57.70
68822;BME280;55834;50.870;4.606;2024-01-15T00:58:29;99899.25;;;0.94;58.88
68822;BME280;55834;50.870;4.606;2024-01-15T01:00:55;99904.47;;;0.37;59.57
68822;BME280;55834;50.870;4.606;2024-01-15T01:03:20;99902.72;;;0.27;60.15
68822;BME280;55834;50.870;4.606;2024-01-15T01:05:48;99896.63;;;0.69;59.96
68822;BME280;55834;50.870;4.606;2024-01-15T01:08:13;99900.09;;;0.94;58.61
68822;BME280;55834;50.870;4.606;2024-01-15T01:10:39;99905.31;;;0.86;58.48
68822;BME280;55834;50.870;4.606;2024-01-15T01:13:05;99903.59;;;0.52;60.60
68822;BME280;55834;50.870;4.606;2024-01-15T01:15:30;99902.72;;;0.88;60.28
68822;BME280;55834;50.870;4.606;2024-01-15T01:17:55;99889.66;;;1.06;59.68
68822;BME280;55834;50.870;4.606;2024-01-15T01:20:21;99874.91;;;1.13;59.63
68822;BME280;55834;50.870;4.606;2024-01-15T01:22:46;99896.66;;;0.34;61.33
68822;BME280;55834;50.870;4.606;2024-01-15T01:25:12;99896.66;;;0.80;61.84
68822;BME280;55834;50.870;4.606;2024-01-15T01:27:37;99889.66;;;1.14;61.46
68822;BME280;55834;50.870;4.606;2024-01-15T01:30:03;99887.97;;;0.70;59.90
68822;BME280;55834;50.870;4.606;2024-01-15T01:32:28;99888.88;;;0.40;61.49
68822;BME280;55834;50.870;4.606;2024-01-15T01:34:54;99890.56;;;0.72;62.58
68822;BME280;55834;50.870;4.606;2024-01-15T01:37:19;99890.63;;;0.33;63.12
68822;BME280;55834;50.870;4.606;2024-01-15T01:39:45;99884.53;;;0.27;63.37
68822;BME280;55834;50.870;4.606;2024-01-15T01:42:11;99882.78;;;0.91;62.48
68822;BME280;55834;50.870;4.606;2024-01-15T01:44:37;99883.59;;;1.17;61.87
68822;BME280;55834;50.870;4.606;2024-01-15T01:47:03;99879.25;;;1.02;61.70
68822;BME280;55834;50.870;4.606;2024-01-15T01:49:29;99874.00;;;1.22;60.40
68822;BME280;55834;50.870;4.606;2024-01-15T01:51:59;99877.38;;;1.47;60.36
68822;BME280;55834;50.870;4.606;2024-01-15T01:54:26;99885.16;;;1.54;59.87
68822;BME280;55834;50.870;4.606;2024-01-15T01:56:54;99877.44;;;1.31;59.10
68822;BME280;55834;50.870;4.606;2024-01-15T01:59:23;99871.44;;;1.20;58.62
68822;BME280;55834;50.870;4.606;2024-01-15T02:01:49;99872.34;;;1.01;59.52
68822;BME280;55834;50.870;4.606;2024-01-15T02:04:15;99870.47;;;1.40;60.25
68822;BME280;55834;50.870;4.606;2024-01-15T02:06:41;99868.88;;;1.02;58.87
68822;BME280;55834;50.870;4.606;2024-01-15T02:09:07;99869.72;;;1.08;59.41
68822;BME280;55834;50.870;4.606;2024-01-15T02:11:33;99872.28;;;1.22;59.76
68822;BME280;55834;50.870;4.606;2024-01-15T02:13:59;99867.81;;;1.52;59.93
68822;BME280;55834;50.870;4.606;2024-01-15T02:16:24;99865.13;;;1.64;59.56
68822;BME280;55834;50.870;4.606;2024-01-15T02:18:50;99875.56;;;1.56;57.28
68822;BME280;55834;50.870;4.606;2024-01-15T02:21:15;99863.53;;;1.39;59.00
68822;BME280;55834;50.870;4.606;2024-01-15T02:23:40;99871.38;;;1.28;59.13
68822;BME280;55834;50.870;4.606;2024-01-15T02:26:06;99874.03;;;1.17;58.68
68822;BME280;55834;50.870;4.606;2024-01-15T02:28:32;99880.19;;;0.84;59.79
68822;BME280;55834;50.870;4.606;2024-01-15T02:30:58;99882.19;;;-1.48;66.95
68822;BME280;55834;50.870;4.606;2024-01-15T02:33:23;99894.47;;;-1.19;68.43
68822;BME280;55834;50.870;4.606;2024-01-15T02:35:49;99884.47;;;-0.32;66.77
68822;BME280;55834;50.870;4.606;2024-01-15T02:38:15;99869.78;;;0.64;65.22
68822;BME280;55834;50.870;4.606;2024-01-15T02:40:40;99878.38;;;1.10;64.12
68822;BME280;55834;50.870;4.606;2024-01-15T02:43:06;99867.00;;;1.41;62.58
68822;BME280;55834;50.870;4.606;2024-01-15T02:45:32;99865.34;;;1.18;60.37
68822;BME280;55834;50.870;4.606;2024-01-15T02:47:57;99867.94;;;1.26;60.00
68822;BME280;55834;50.870;4.606;2024-01-15T02:50:22;99865.38;;;1.07;59.51
68822;BME280;55834;50.870;4.606;2024-01-15T02:52:48;99865.19;;;1.55;60.47
68822;BME280;55834;50.870;4.606;2024-01-15T02:55:13;99862.56;;;1.58;59.69
68822;BME280;55834;50.870;4.606;2024-01-15T02:57:39;99864.31;;;1.56;59.00
68822;BME280;55834;50.870;4.606;2024-01-15T03:00:04;99866.28;;;1.03;60.69
68822;BME280;55834;50.870;4.606;2024-01-15T03:02:30;99866.38;;;0.45;61.18
68822;BME280;55834;50.870;4.606;2024-01-15T03:04:58;99867.94;;;1.23;62.25
68822;BME280;55834;50.870;4.606;2024-01-15T03:07:24;99859.06;;;1.64;61.85
68822;BME280;55834;50.870;4.606;2024-01-15T03:09:49;99859.88;;;1.70;59.36
68822;BME280;55834;50.870;4.606;2024-01-15T03:12:15;99852.25;;;1.43;58.81
68822;BME280;55834;50.870;4.606;2024-01-15T03:14:40;99847.88;;;1.48;59.83
68822;BME280;55834;50.870;4.606;2024-01-15T03:17:06;99842.63;;;1.54;59.14
68822;BME280;55834;50.870;4.606;2024-01-15T03:19:34;99850.66;;;1.06;59.87
68822;BME280;55834;50.870;4.606;2024-01-15T03:22:00;99849.72;;;1.24;60.53
68822;BME280;55834;50.870;4.606;2024-01-15T03:24:28;99849.63;;;1.49;60.58
68822;BME280;55834;50.870;4.606;2024-01-15T03:26:53;99840.13;;;1.40;59.51
68822;BME280;55834;50.870;4.606;2024-01-15T03:29:18;99840.94;;;1.47;60.02
68822;BME280;55834;50.870;4.606;2024-01-15T03:31:44;99834.97;;;1.34;59.82
68822;BME280;55834;50.870;4.606;2024-01-15T03:34:09;99838.38;;;1.39;59.15
68822;BME280;55834;50.870;4.606;2024-01-15T03:36:34;99839.38;;;1.12;58.96
68822;BME280;55834;50.870;4.606;2024-01-15T03:39:00;99834.06;;;1.38;60.18
68822;BME280;55834;50.870;4.606;2024-01-15T03:41:25;99829.78;;;1.25;59.00
68822;BME280;55834;50.870;4.606;2024-01-15T03:43:51;99819.22;;;1.60;59.86
68822;BME280;55834;50.870;4.606;2024-01-15T03:46:16;99827.13;;;1.39;58.81
68822;BME280;55834;50.870;4.606;2024-01-15T03:48:41;99819.28;;;1.46;58.88
68822;BME280;55834;50.870;4.606;2024-01-15T03:51:07;99817.44;;;1.62;59.10
68822;BME280;55834;50.870;4.606;2024-01-15T03:53:32;99816.47;;;1.78;58.90
68822;BME280;55834;50.870;4.606;2024-01-15T03:55:57;99822.53;;;1.79;58.01
68822;BME280;55834;50.870;4.606;2024-01-15T03:58:23;99822.41;;;1.96;58.48
68822;BME280;55834;50.870;4.606;2024-01-15T04:00:48;99824.19;;;1.91;57.62
68822;BME280;55834;50.870;4.606;2024-01-15T04:03:14;99820.72;;;1.92;57.04
68822;BME280;55834;50.870;4.606;2024-01-15T04:05:39;99811.22;;;1.86;57.47
68822;BME280;55834;50.870;4.606;2024-01-15T04:08:04;99816.63;;;1.55;58.57
68822;BME280;55834;50.870;4.606;2024-01-15T04:10:30;99808.91;;;1.40;58.56
68822;BME280;55834;50.870;4.606;2024-01-15T04:12:56;99810.69;;;1.30;58.84
68822;BME280;55834;50.870;4.606;2024-01-15T04:15:22;99794.47;;;0.68;60.19
68822;BME280;55834;50.870;4.606;2024-01-15T04:17:47;99803.09;;;0.81;60.42
68822;BME280;55834;50.870;4.606;2024-01-15T04:20:13;99797.88;;;0.84;59.45
68822;BME280;55834;50.870;4.606;2024-01-15T04:22:38;99795.09;;;1.29;60.31
68822;BME280;55834;50.870;4.606;2024-01-15T04:25:04;99793.44;;;1.17;59.56
68822;BME280;55834;50.870;4.606;2024-01-15T04:27:30;99789.88;;;1.35;59.74
68822;BME280;55834;50.870;4.606;2024-01-15T04:29:55;99794.09;;;1.54;59.18
68822;BME280;55834;50.870;4.606;2024-01-15T04:32:21;99786.56;;;1.02;58.93
68822;BME280;55834;50.870;4.606;2024-01-15T04:34:46;99788.38;;;0.73;59.76
68822;BME280;55834;50.870;4.606;2024-01-15T04:37:13;99781.47;;;0.78;59.80
68822;BME280;55834;50.870;4.606;2024-01-15T04:39:39;99783.22;;;0.53;60.51
68822;BME280;55834;50.870;4.606;2024-01-15T04:42:04;99775.50;;;0.39;61.15
68822;BME280;55834;50.870;4.606;2024-01-15T04:44:29;99772.81;;;0.76;60.95
68822;BME280;55834;50.870;4.606;2024-01-15T04:46:55;99770.06;;;1.05;60.56
68822;BME280;55834;50.870;4.606;2024-01-15T04:49:20;99770.28;;;0.40;60.20
68822;BME280;55834;50.870;4.606;2024-01-15T04:51:46;99770.19;;;0.83;60.63
68822;BME280;55834;50.870;4.606;2024-01-15T04:54:11;99770.13;;;0.93;60.10
68822;BME280;55834;50.870;4.606;2024-01-15T04:56:37;99784.84;;;0.95;58.98
68822;BME280;55834;50.870;4.606;2024-01-15T04:59:02;99778.59;;;1.34;60.06
68822;BME280;55834;50.870;4.606;2024-01-15T05:01:31;99789.13;;;1.11;58.11
68822;BME280;55834;50.870;4.606;2024-01-15T05:03:57;99761.25;;;1.38;59.53
68822;BME280;55834;50.870;4.606;2024-01-15T05:06:23;99782.31;;;0.83;60.50
68822;BME280;55834;50.870;4.606;2024-01-15T05:08:48;99778.69;;;1.18;60.20
68822;BME280;55834;50.870;4.606;2024-01-15T05:11:13;99783.13;;;0.94;58.96
68822;BME280;55834;50.870;4.606;2024-01-15T05:13:39;99767.44;;;1.12;59.25
68822;BME280;55834;50.870;4.606;2024-01-15T05:16:04;99765.72;;;1.14;59.91
68822;BME280;55834;50.870;4.606;2024-01-15T05:18:29;99773.44;;;1.27;59.21
68822;BME280;55834;50.870;4.606;2024-01-15T05:20:55;99770.91;;;1.14;59.47
68822;BME280;55834;50.870;4.606;2024-01-15T05:23:20;99769.38;;;0.74;59.23
68822;BME280;55834;50.870;4.606;2024-01-15T05:25:46;99763.97;;;1.17;61.04
68822;BME280;55834;50.870;4.606;2024-01-15T05:28:11;99765.66;;;1.28;60.00
68822;BME280;55834;50.870;4.606;2024-01-15T05:30:37;99763.03;;;1.27;58.72
68822;BME280;55834;50.870;4.606;2024-01-15T05:33:02;99764.63;;;1.49;58.80
68822;BME280;55834;50.870;4.606;2024-01-15T05:35:28;99760.53;;;1.10;59.27
68822;BME280;55834;50.870;4.606;2024-01-15T05:37:53;99768.28;;;1.19;59.84
68822;BME280;55834;50.870;4.606;2024-01-15T05:40:19;99758.00;;;0.95;59.58
68822;BME280;55834;50.870;4.606;2024-01-15T05:42:44;99763.97;;;1.10;59.85
68822;BME280;55834;50.870;4.606;2024-01-15T05:45:09;99763.34;;;0.49;59.47
68822;BME280;55834;50.870;4.606;2024-01-15T05:47:35;99769.31;;;0.84;60.82
68822;BME280;55834;50.870;4.606;2024-01-15T05:50:01;99769.41;;;0.40;60.71
68822;BME280;55834;50.870;4.606;2024-01-15T05:52:27;99765.16;;;-0.06;61.43
68822;BME280;55834;50.870;4.606;2024-01-15T05:54:52;99761.66;;;0.38;62.15
68822;BME280;55834;50.870;4.606;2024-01-15T05:57:18;99764.28;;;0.12;63.04
68822;BME280;55834;50.870;4.606;2024-01-15T05:59:44;99759.00;;;0.49;61.75
68822;BME280;55834;50.870;4.606;2024-01-15T06:02:10;99747.75;;;0.55;61.72
68822;BME280;55834;50.870;4.606;2024-01-15T06:04:36;99747.84;;;0.24;62.26
68822;BME280;55834;50.870;4.606;2024-01-15T06:07:01;99746.13;;;-0.14;62.52
68822;BME280;55834;50.870;4.606;2024-01-15T06:09:26;99748.63;;;0.48;62.44
68822;BME280;55834;50.870;4.606;2024-01-15T06:11:53;99748.69;;;0.28;60.49
68822;BME280;55834;50.870;4.606;2024-01-15T06:14:18;99742.47;;;0.70;61.67
68822;BME280;55834;50.870;4.606;2024-01-15T06:16:43;99734.84;;;0.22;61.37
68822;BME280;55834;50.870;4.606;2024-01-15T06:19:09;99741.66;;;0.53;61.70
68822;BME280;55834;50.870;4.606;2024-01-15T06:21:34;99740.81;;;0.57;60.91
68822;BME280;55834;50.870;4.606;2024-01-15T06:23:59;99734.78;;;0.45;60.52
68822;BME280;55834;50.870;4.606;2024-01-15T06:26:25;99739.19;;;0.19;60.54
68822;BME280;55834;50.870;4.606;2024-01-15T06:28:50;99734.69;;;0.81;61.04
68822;BME280;55834;50.870;4.606;2024-01-15T06:31:16;99727.59;;;1.13;60.77
68822;BME280;55834;50.870;4.606;2024-01-15T06:33:41;99732.03;;;0.95;58.26
68822;BME280;55834;50.870;4.606;2024-01-15T06:36:07;99729.31;;;1.13;58.53
68822;BME280;55834;50.870;4.606;2024-01-15T06:38:32;99731.25;;;0.65;56.86
68822;BME280;55834;50.870;4.606;2024-01-15T06:40:58;99728.56;;;0.89;58.41
68822;BME280;55834;50.870;4.606;2024-01-15T06:43:23;99739.09;;;0.43;59.44
68822;BME280;55834;50.870;4.606;2024-01-15T06:45:49;99734.88;;;0.07;60.11
68822;BME280;55834;50.870;4.606;2024-01-15T06:48:14;99733.19;;;-0.11;59.96
68822;BME280;55834;50.870;4.606;2024-01-15T06:50:44;99739.22;;;-0.04;60.31
68822;BME280;55834;50.870;4.606;2024-01-15T06:53:10;99740.91;;;0.06;60.89
68822;BME280;55834;50.870;4.606;2024-01-15T06:55:36;99747.00;;;-0.18;59.45
68822;BME280;55834;50.870;4.606;2024-01-15T06:58:01;99731.38;;;0.28;59.23
68822;BME280;55834;50.870;4.606;2024-01-15T07:00:26;99735.69;;;0.26;59.21
68822;BME280;55834;50.870;4.606;2024-01-15T07:02:53;99731.25;;;0.63;59.06
68822;BME280;55834;50.870;4.606;2024-01-15T07:05:20;99723.44;;;0.68;58.63
68822;BME280;55834;50.870;4.606;2024-01-15T07:07:45;99715.63;;;0.80;57.72
68822;BME280;55834;50.870;4.606;2024-01-15T07:10:11;99720.00;;;0.63;57.84
68822;BME280;55834;50.870;4.606;2024-01-15T07:12:36;99724.31;;;0.78;57.77
68822;BME280;55834;50.870;4.606;2024-01-15T07:15:02;99726.84;;;0.90;56.98
68822;BME280;55834;50.870;4.606;2024-01-15T07:17:27;99732.06;;;0.88;56.88
68822;BME280;55834;50.870;4.606;2024-01-15T07:19:53;99734.56;;;1.05;57.55
68822;BME280;55834;50.870;4.606;2024-01-15T07:22:18;99733.88;;;0.62;57.95
68822;BME280;55834;50.870;4.606;2024-01-15T07:24:45;99739.09;;;0.54;58.78
68822;BME280;55834;50.870;4.606;2024-01-15T07:27:10;99740.81;;;0.49;58.63
68822;BME280;55834;50.870;4.606;2024-01-15T07:29:37;99734.72;;;0.65;58.97
68822;BME280;55834;50.870;4.606;2024-01-15T07:32:03;99734.63;;;0.93;58.60
68822;BME280;55834;50.870;4.606;2024-01-15T07:34:29;99733.94;;;0.40;58.07
68822;BME280;55834;50.870;4.606;2024-01-15T07:36:54;99748.72;;;-0.14;60.00
68822;BME280;55834;50.870;4.606;2024-01-15T07:39:19;99738.31;;;0.28;60.17
68822;BME280;55834;50.870;4.606;2024-01-15T07:41:45;99740.78;;;0.66;59.65
68822;BME280;55834;50.870;4.606;2024-01-15T07:44:10;99745.13;;;0.73;59.24
68822;BME280;55834;50.870;4.606;2024-01-15T07:46:36;99751.22;;;0.54;57.76
68822;BME280;55834;50.870;4.606;2024-01-15T07:49:01;99751.09;;;0.87;58.28
68822;BME280;55834;50.870;4.606;2024-01-15T07:51:27;99749.47;;;0.53;57.73
68822;BME280;55834;50.870;4.606;2024-01-15T07:53:53;99755.53;;;0.56;57.68
68822;BME280;55834;50.870;4.606;2024-01-15T07:56:19;99745.09;;;0.78;58.52
68822;BME280;55834;50.870;4.606;2024-01-15T07:58:44;99758.97;;;0.67;57.91
68822;BME280;55834;50.870;4.606;2024-01-15T08:01:10;99763.31;;;0.59;58.38
68822;BME280;55834;50.870;4.606;2024-01-15T08:03:35;99759.84;;;0.65;58.12
68822;BME280;55834;50.870;4.606;2024-01-15T08:06:01;99762.56;;;0.05;58.46
68822;BME280;55834;50.870;4.606;2024-01-15T08:08:27;99757.38;;;0.05;60.48
68822;BME280;55834;50.870;4.606;2024-01-15T08:10:53;99759.03;;;0.41;59.79
68822;BME280;55834;50.870;4.606;2024-01-15T08:13:18;99765.03;;;0.65;58.93
68822;BME280;55834;50.870;4.606;2024-01-15T08:15:45;99764.22;;;0.44;59.49
68822;BME280;55834;50.870;4.606;2024-01-15T08:18:11;99762.47;;;0.59;59.45
68822;BME280;55834;50.870;4.606;2024-01-15T08:20:37;99772.97;;;-0.16;60.09
68822;BME280;55834;50.870;4.606;2024-01-15T08:23:03;99768.59;;;0.12;59.75
68822;BME280;55834;50.870;4.606;2024-01-15T08:25:28;99770.31;;;0.31;58.96
68822;BME280;55834;50.870;4.606;2024-01-15T08:27:53;99768.53;;;0.49;59.10
68822;BME280;55834;50.870;4.606;2024-01-15T08:30:19;99780.59;;;0.80;58.04
68822;BME280;55834;50.870;4.606;2024-01-15T08:32:45;99769.34;;;0.75;57.78
68822;BME280;55834;50.870;4.606;2024-01-15T08:35:13;99773.72;;;0.44;57.49
68822;BME280;55834;50.870;4.606;2024-01-15T08:37:39;99782.44;;;0.23;59.56
68822;BME280;55834;50.870;4.606;2024-01-15T08:40:05;99783.31;;;-0.18;60.18
68822;BME280;55834;50.870;4.606;2024-01-15T08:42:30;99784.19;;;0.07;59.49
68822;BME280;55834;50.870;4.606;2024-01-15T08:44:55;99793.72;;;-0.16;58.67
68822;BME280;55834;50.870;4.606;2024-01-15T08:47:21;99785.06;;;-0.37;60.25
68822;BME280;55834;50.870;4.606;2024-01-15T08:49:46;99788.50;;;0.00;59.69
68822;BME280;55834;50.870;4.606;2024-01-15T08:52:12;99792.81;;;-0.26;58.92
68822;BME280;55834;50.870;4.606;2024-01-15T08:54:37;99780.72;;;-0.03;58.44
68822;BME280;55834;50.870;4.606;2024-01-15T08:57:03;99785.00;;;0.32;57.13
68822;BME280;55834;50.870;4.606;2024-01-15T08:59:28;99795.44;;;0.24;57.01
68822;BME280;55834;50.870;4.606;2024-01-15T09:01:54;99799.75;;;0.21;57.77
68822;BME280;55834;50.870;4.606;2024-01-15T09:04:22;99792.75;;;0.63;57.71
68822;BME280;55834;50.870;4.606;2024-01-15T09:06:48;99790.19;;;0.48;56.06
68822;BME280;55834;50.870;4.606;2024-01-15T09:09:13;99798.88;;;-0.44;59.10
68822;BME280;55834;50.870;4.606;2024-01-15T09:11:41;99795.41;;;-0.51;57.93
68822;BME280;55834;50.870;4.606;2024-01-15T09:14:07;99785.00;;;0.35;57.34
68822;BME280;55834;50.870;4.606;2024-01-15T09:16:34;99790.25;;;0.15;56.82
68822;BME280;55834;50.870;4.606;2024-01-15T09:18:59;99790.16;;;0.57;56.19
68822;BME280;55834;50.870;4.606;2024-01-15T09:21:25;99780.59;;;0.69;55.64
68822;BME280;55834;50.870;4.606;2024-01-15T09:23:51;99772.06;;;0.08;56.10
68822;BME280;55834;50.870;4.606;2024-01-15T09:26:16;99788.53;;;-0.10;57.12
68822;BME280;55834;50.870;4.606;2024-01-15T09:28:42;99793.69;;;-0.26;57.07
68822;BME280;55834;50.870;4.606;2024-01-15T09:31:07;99797.16;;;0.12;56.61
68822;BME280;55834;50.870;4.606;2024-01-15T09:33:33;99801.50;;;0.16;55.87
68822;BME280;55834;50.870;4.606;2024-01-15T09:36:02;99793.66;;;0.42;56.37
68822;BME280;55834;50.870;4.606;2024-01-15T09:38:32;99795.44;;;0.24;56.26
68822;BME280;55834;50.870;4.606;2024-01-15T09:40:57;99804.94;;;-0.01;57.47
68822;BME280;55834;50.870;4.606;2024-01-15T09:43:23;99799.75;;;-0.30;56.84
68822;BME280;55834;50.870;4.606;2024-01-15T09:45:53;99805.81;;;-0.03;57.90
68822;BME280;55834;50.870;4.606;2024-01-15T09:48:19;99808.34;;;0.52;55.76
68822;BME280;55834;50.870;4.606;2024-01-15T09:50:44;99808.38;;;0.34;56.41
68822;BME280;55834;50.870;4.606;2024-01-15T09:53:11;99809.13;;;0.94;55.25
68822;BME280;55834;50.870;4.606;2024-01-15T09:55:37;99810.94;;;0.60;55.29
68822;BME280;55834;50.870;4.606;2024-01-15T09:58:06;99812.66;;;0.62;55.43
68822;BME280;55834;50.870;4.606;2024-01-15T10:00:33;99804.59;;;1.38;54.68
68822;BME280;55834;50.870;4.606;2024-01-15T10:03:04;99809.97;;;1.05;53.90
68822;BME280;55834;50.870;4.606;2024-01-15T10:05:30;99812.50;;;1.18;53.69
68822;BME280;55834;50.870;4.606;2024-01-15T10:07:56;99817.88;;;0.38;54.44
68822;BME280;55834;50.870;4.606;2024-01-15T10:10:23;99810.91;;;0.75;55.07
68822;BME280;55834;50.870;4.606;2024-01-15T10:12:49;99823.00;;;0.90;54.37
68822;BME280;55834;50.870;4.606;2024-01-15T10:15:14;99815.19;;;0.90;54.62
68822;BME280;55834;50.870;4.606;2024-01-15T10:17:40;99822.22;;;0.37;54.45
68822;BME280;55834;50.870;4.606;2024-01-15T10:20:12;99828.97;;;1.12;53.93
68822;BME280;55834;50.870;4.606;2024-01-15T10:22:45;99826.16;;;1.53;52.76
68822;BME280;55834;50.870;4.606;2024-01-15T10:25:12;99826.22;;;1.49;53.17
68822;BME280;55834;50.870;4.606;2024-01-15T10:27:39;99832.50;;;0.96;53.48
68822;BME280;55834;50.870;4.606;2024-01-15T10:30:05;99836.09;;;0.24;54.33
68822;BME280;55834;50.870;4.606;2024-01-15T10:32:31;99816.94;;;0.86;54.38
68822;BME280;55834;50.870;4.606;2024-01-15T10:34:57;99819.38;;;1.25;53.77
68822;BME280;55834;50.870;4.606;2024-01-15T10:37:24;99821.31;;;0.67;54.31
68822;BME280;55834;50.870;4.606;2024-01-15T10:39:50;99817.84;;;0.58;55.56
68822;BME280;55834;50.870;4.606;2024-01-15T10:42:15;99819.50;;;1.00;54.42
68822;BME280;55834;50.870;4.606;2024-01-15T10:44:43;99823.97;;;0.41;54.53
68822;BME280;55834;50.870;4.606;2024-01-15T10:47:09;99821.31;;;0.52;55.00
68822;BME280;55834;50.870;4.606;2024-01-15T10:49:36;99829.19;;;0.08;55.17
68822;BME280;55834;50.870;4.606;2024-01-15T10:52:02;99835.03;;;1.16;53.85
68822;BME280;55834;50.870;4.606;2024-01-15T10:54:27;99836.88;;;0.83;53.92
68822;BME280;55834;50.870;4.606;2024-01-15T10:56:55;99848.16;;;0.80;54.96
68822;BME280;55834;50.870;4.606;2024-01-15T10:59:21;99843.84;;;0.53;54.34
68822;BME280;55834;50.870;4.606;2024-01-15T11:01:48;99835.94;;;1.07;54.23
68822;BME280;55834;50.870;4.606;2024-01-15T11:04:14;99840.03;;;1.55;52.66
68822;BME280;55834;50.870;4.606;2024-01-15T11:06:44;99839.19;;;1.50;53.28
68822;BME280;55834;50.870;4.606;2024-01-15T11:09:12;99852.44;;;1.00;54.01
68822;BME280;55834;50.870;4.606;2024-01-15T11:11:42;99849.94;;;0.48;54.17
68822;BME280;55834;50.870;4.606;2024-01-15T11:14:08;99849.75;;;1.21;54.28
68822;BME280;55834;50.870;4.606;2024-01-15T11:16:54;99837.44;;;1.54;53.44
68822;BME280;55834;50.870;4.606;2024-01-15T11:19:47;99848.88;;;1.22;52.93
68822;BME280;55834;50.870;4.606;2024-01-15T11:25:03;99851.56;;;0.99;53.85
68822;BME280;55834;50.870;4.606;2024-01-15T11:27:46;99838.50;;;1.16;53.14
68822;BME280;55834;50.870;4.606;2024-01-15T11:30:18;99844.72;;;0.49;53.92
68822;BME280;55834;50.870;4.606;2024-01-15T11:32:47;99841.25;;;0.52;53.73
68822;BME280;55834;50.870;4.606;2024-01-15T11:35:13;99831.75;;;0.40;53.50
68822;BME280;55834;50.870;4.606;2024-01-15T11:40:36;99839.34;;;1.18;52.71
68822;BME280;55834;50.870;4.606;2024-01-15T11:43:03;99834.31;;;0.63;53.28
68822;BME280;55834;50.870;4.606;2024-01-15T11:45:30;99830.91;;;0.22;53.85
68822;BME280;55834;50.870;4.606;2024-01-15T11:48:14;99829.13;;;0.35;52.98
68822;BME280;55834;50.870;4.606;2024-01-15T11:50:42;99829.16;;;0.40;52.89
68822;BME280;55834;50.870;4.606;2024-01-15T11:53:15;99836.97;;;0.08;54.59
68822;BME280;55834;50.870;4.606;2024-01-15T11:55:44;99833.50;;;0.01;53.77
68822;BME280;55834;50.870;4.606;2024-01-15T11:58:14;99851.66;;;-0.10;54.44
68822;BME280;55834;50.870;4.606;2024-01-15T12:00:58;99851.66;;;-0.01;54.72
68822;BME280;55834;50.870;4.606;2024-01-15T12:03:24;99855.13;;;0.08;53.45
68822;BME280;55834;50.870;4.606;2024-01-15T12:05:50;99841.25;;;0.79;52.34
68822;BME280;55834;50.870;4.606;2024-01-15T12:08:23;99855.09;;;0.55;52.12
68822;BME280;55834;50.870;4.606;2024-01-15T12:10:48;99835.16;;;0.68;52.15
68822;BME280;55834;50.870;4.606;2024-01-15T12:13:14;99855.09;;;0.57;51.81
68822;BME280;55834;50.870;4.606;2024-01-15T12:15:42;99854.16;;;0.93;51.18
68822;BME280;55834;50.870;4.606;2024-01-15T12:18:09;99874.03;;;-0.49;53.83
68822;BME280;55834;50.870;4.606;2024-01-15T12:20:35;99857.72;;;0.31;52.33
68822;BME280;55834;50.870;4.606;2024-01-15T12:23:02;99844.69;;;0.71;52.51
68822;BME280;55834;50.870;4.606;2024-01-15T12:25:31;99837.50;;;1.42;50.32
68822;BME280;55834;50.870;4.606;2024-01-15T12:27:58;99851.66;;;0.53;51.58
68822;BME280;55834;50.870;4.606;2024-01-15T12:30:26;99855.88;;;1.03;51.81
68822;BME280;55834;50.870;4.606;2024-01-15T12:32:51;99854.81;;;1.49;50.65
68822;BME280;55834;50.870;4.606;2024-01-15T12:35:17;99856.59;;;1.41;51.59
68822;BME280;55834;50.870;4.606;2024-01-15T12:37:43;99857.13;;;1.93;50.85
68822;BME280;55834;50.870;4.606;2024-01-15T12:40:10;99861.56;;;1.79;49.91
68822;BME280;55834;50.870;4.606;2024-01-15T12:42:45;99866.25;;;1.11;51.41
68822;BME280;55834;50.870;4.606;2024-01-15T12:45:11;99872.34;;;1.02;51.75
68822;BME280;55834;50.870;4.606;2024-01-15T12:47:37;99863.75;;;0.80;51.91
68822;BME280;55834;50.870;4.606;2024-01-15T12:50:07;99878.47;;;0.80;52.63
68822;BME280;55834;50.870;4.606;2024-01-15T12:52:33;99876.59;;;1.31;51.60
68822;BME280;55834;50.870;4.606;2024-01-15T12:54:58;99893.19;;;0.29;54.76
68822;BME280;55834;50.870;4.606;2024-01-15T12:57:23;99888.88;;;0.24;55.34
68822;BME280;55834;50.870;4.606;2024-01-15T12:59:49;99882.81;;;0.36;55.72
68822;BME280;55834;50.870;4.606;2024-01-15T13:02:17;99898.25;;;-0.54;57.27
68822;BME280;55834;50.870;4.606;2024-01-15T13:04:43;99895.78;;;0.29;56.50
68822;BME280;55834;50.870;4.606;2024-01-15T13:07:08;99888.00;;;0.06;57.53
68822;BME280;55834;50.870;4.606;2024-01-15T13:09:34;99868.09;;;0.26;57.46